Terminal Aerodrome Forecast
Issued by NWS

Home | Current Version | Previous Version | Text Only | Print | Product List | Glossary On
Versions: 1 2 3 4 5 6 7 8 9 10 11 12 13 14 15 16 17
000
FTUS46 KPQR 300520
TAFONP
TAF
KONP 300520Z 3006/0106 17005KT P6SM -RA OVC090
     FM300800 21014G20KT P6SM -RA BKN008 OVC015
     FM301300 32007KT P6SM -RA BKN015 OVC040
     FM302000 30011KT P6SM VCSH SCT015 BKN040
     FM010300 30005KT P6SM SCT030=

USA.gov is the U.S. government's official web portal to all federal, state and local government web resources and services.